logo tempoitalia

Diretta Meteo Borger Hutchinson, Stati Uniti (USA)lunedì 31 agosto ore 00:51

Mappa
Sereno 29 °C Sereno 24 Ore: T.min 24 T.max 39
Ponente Sud Km/h 27.8 Punto di rugiada: 12 °C Umidità: 35% Visibilità: 10 Km
Il sole sorge alle: 07:17 Il sole tramonta alle: 20:14
31 Agosto 2026 00:51 tempo osservato: Sereno Sereno 29 35 1015 vento: Nord S 27.8
30 Agosto 2026 23:51 tempo osservato: Sereno Sereno 30 30 1015 vento: Nord S 16.7
30 Agosto 2026 22:51 tempo osservato: Sereno Sereno 31 29 1014 vento: Nord S 20.3
30 Agosto 2026 21:51 tempo osservato: Sereno Sereno 32 27 1014 vento: Nord S/SE 18.5
30 Agosto 2026 20:51 tempo osservato: Sereno Sereno 34 24 1013 vento: Nord S 22.2
30 Agosto 2026 19:51 tempo osservato: Sereno Sereno 36 22 1012 vento: Nord S 22.2
30 Agosto 2026 18:51 tempo osservato: Sereno Sereno 38 18 1012 vento: Nord S 27.8
30 Agosto 2026 17:51 tempo osservato: Sereno Sereno 38 17 1012 vento: Nord S 27.8
30 Agosto 2026 16:51 tempo osservato: Sereno Sereno 39 18 1012 vento: Nord S 33.3
30 Agosto 2026 15:51 tempo osservato: Sereno Sereno 39 18 1013 vento: Nord S 33.3
30 Agosto 2026 14:51 tempo osservato: Sereno Sereno 39 18 1014 vento: Nord S 29.6
30 Agosto 2026 13:51 tempo osservato: Sereno Sereno 38 21 1015 vento: Nord S/SO 29.6
30 Agosto 2026 12:51 tempo osservato: Sereno Sereno 37 22 1015 vento: Nord S/SO 29.6
30 Agosto 2026 11:51 tempo osservato: Sereno Sereno 35 28 1016 vento: Nord S/SO 25.9
30 Agosto 2026 10:51 tempo osservato: Sereno Sereno 33 33 1016 vento: Nord SO 27.8
30 Agosto 2026 09:51 tempo osservato: Sereno Sereno 31 37 1016 vento: Nord S/SO 22.2
30 Agosto 2026 08:51 tempo osservato: Sereno Sereno 28 42 1016 vento: Nord S/SO 22.2
30 Agosto 2026 07:51 tempo osservato: Sereno Sereno 26 44 1016 vento: Nord SO 14.8
30 Agosto 2026 06:51 tempo osservato: Sereno Sereno 24 50 1016 vento: Nord S/SO 14.8
30 Agosto 2026 05:51 tempo osservato: Sereno Sereno 25 44 1016 vento: Nord S/SO 16.7
30 Agosto 2026 04:51 tempo osservato: Sereno Sereno 26 41 1015 vento: Nord S 16.7
30 Agosto 2026 03:51 tempo osservato: Sereno Sereno 27 39 1015 vento: Nord S 18.5
30 Agosto 2026 02:51 tempo osservato: Sereno Sereno 28 37 1015 vento: Nord S 22.2
30 Agosto 2026 01:51 tempo osservato: Sereno Sereno 27 39 1016 vento: Nord S 16.7